Time;durP1;ratioP1;P1;durP2;ratioP2;P2;SDS_P1;SDS_P2;PMS_P1;PMS_P2;Temp;Humidity;BMP_temperature;BMP_pressure;BME280_temperature;BME280_humidity;BME280_pressure;Samples;Min_cycle;Max_cycle;Signal;HPM_P1;HPM_P2
2022/12/02 00:01:24;;;;;;;23.73;13.85;;;7.80;99.90;;;;;;5029662;28;20162;-75
2022/12/02 00:03:50;;;;;;;24.77;15.30;;;7.80;99.90;;;;;;5012088;28;20169;-75
2022/12/02 00:06:25;;;;;;;19.27;12.40;;;7.80;99.90;;;;;;5029723;28;20172;-75
2022/12/02 00:08:55;;;;;;;26.23;15.63;;;7.80;99.90;;;;;;5029205;28;20595;-75
2022/12/02 00:11:26;;;;;;;21.20;15.18;;;7.80;99.90;;;;;;5029033;28;20257;-75
2022/12/02 00:13:54;;;;;;;22.05;13.85;;;7.70;99.90;;;;;;5029596;28;20189;-74
2022/12/02 00:16:22;;;;;;;23.27;14.85;;;7.70;99.90;;;;;;5029600;28;21071;-75
2022/12/02 00:18:52;;;;;;;24.55;17.20;;;7.70;99.90;;;;;;5029082;28;20653;-75
2022/12/02 00:21:19;;;;;;;33.80;19.13;;;7.70;99.90;;;;;;5029053;28;20165;-74
2022/12/02 00:23:45;;;;;;;26.30;16.45;;;7.70;99.90;;;;;;5011818;28;20260;-75
2022/12/02 00:26:11;;;;;;;28.45;16.08;;;7.70;99.90;;;;;;5027975;28;20200;-75
2022/12/02 00:28:37;;;;;;;25.70;16.80;;;7.60;99.90;;;;;;5010820;28;20225;-75
2022/12/02 00:31:03;;;;;;;25.90;15.87;;;7.60;99.90;;;;;;5029459;28;20173;-75
2022/12/02 00:33:29;;;;;;;24.90;16.57;;;7.60;99.90;;;;;;5011117;28;20615;-75
2022/12/02 00:35:55;;;;;;;24.50;16.07;;;7.50;99.90;;;;;;5027917;28;20557;-75
2022/12/02 00:38:20;;;;;;;24.83;15.90;;;7.50;99.90;;;;;;5028444;28;21058;-75
2022/12/02 00:40:46;;;;;;;23.30;15.00;;;7.50;99.90;;;;;;5011324;28;20724;-75
2022/12/02 00:48:41;;;;;;;23.30;13.60;;;7.50;99.90;;;;;;5028313;28;20201;-75
2022/12/02 00:51:06;;;;;;;22.50;14.70;;;7.50;99.90;;;;;;5028960;28;20172;-75
2022/12/02 00:53:32;;;;;;;22.00;15.30;;;7.50;99.90;;;;;;5028576;28;20189;-75
2022/12/02 00:55:58;;;;;;;18.57;12.87;;;7.40;99.90;;;;;;5027670;28;20964;-75
2022/12/02 00:58:24;;;;;;;21.02;14.20;;;7.40;99.90;;;;;;5010946;28;20631;-75
2022/12/02 01:00:50;;;;;;;19.47;13.87;;;7.40;99.90;;;;;;4994745;28;20264;-74
2022/12/02 01:03:16;;;;;;;18.50;12.80;;;7.30;99.90;;;;;;5030640;28;20208;-75
2022/12/02 01:05:41;;;;;;;17.50;13.23;;;7.30;99.90;;;;;;5032903;28;20181;-75
2022/12/02 01:08:07;;;;;;;17.73;12.40;;;7.30;99.90;;;;;;5032680;28;21068;-75
2022/12/02 01:10:33;;;;;;;19.08;12.65;;;7.30;99.90;;;;;;5032738;28;20580;-75
2022/12/02 01:12:59;;;;;;;19.87;14.00;;;7.20;99.90;;;;;;5031487;28;20170;-75
2022/12/02 01:15:26;;;;;;;20.47;14.53;;;7.20;99.90;;;;;;5032690;28;20204;-75
2022/12/02 01:17:51;;;;;;;16.10;11.82;;;7.20;99.90;;;;;;5032760;28;20585;-75
2022/12/02 01:20:17;;;;;;;18.40;12.87;;;7.10;99.90;;;;;;5031745;28;20173;-75
2022/12/02 01:22:43;;;;;;;17.43;12.27;;;7.10;99.90;;;;;;5031097;28;20802;-75
2022/12/02 01:25:09;;;;;;;17.60;12.83;;;7.10;99.90;;;;;;5015448;28;20170;-75
2022/12/02 01:27:35;;;;;;;14.83;12.23;;;7.10;99.90;;;;;;5011126;28;20959;-75
2022/12/02 01:30:01;;;;;;;14.93;9.93;;;7.10;99.90;;;;;;5011686;28;20166;-75
2022/12/02 01:32:26;;;;;;;19.52;13.05;;;7.00;99.90;;;;;;5012277;28;20521;-75
2022/12/02 01:34:52;;;;;;;19.40;12.10;;;7.00;99.90;;;;;;5011535;28;20254;-75
2022/12/02 01:37:18;;;;;;;14.70;10.73;;;7.00;99.90;;;;;;5010656;28;20741;-76
2022/12/02 01:39:44;;;;;;;15.23;11.47;;;7.00;99.90;;;;;;4995145;28;20265;-75
2022/12/02 01:42:10;;;;;;;14.63;11.03;;;7.00;99.90;;;;;;5012185;28;20162;-75
2022/12/02 01:44:36;;;;;;;15.07;10.35;;;7.10;99.90;;;;;;5012600;28;20166;-75
2022/12/02 01:47:03;;;;;;;14.38;10.25;;;7.10;99.90;;;;;;5012191;28;20553;-75
2022/12/02 01:49:29;;;;;;;16.42;10.43;;;7.10;99.90;;;;;;5011008;28;20210;-75
2022/12/02 01:51:55;;;;;;;13.70;9.30;;;7.10;99.90;;;;;;5012187;28;20232;-75
2022/12/02 01:54:21;;;;;;;17.60;12.23;;;7.10;99.90;;;;;;5010877;28;20679;-75
2022/12/02 01:56:47;;;;;;;11.98;8.98;;;7.10;99.90;;;;;;4994792;28;20205;-75
2022/12/02 01:59:15;;;;;;;16.35;11.60;;;7.10;99.90;;;;;;5010323;28;20709;-75
2022/12/02 02:01:41;;;;;;;14.50;11.77;;;7.20;99.90;;;;;;5012110;28;20577;-75
2022/12/02 02:04:08;;;;;;;13.60;10.20;;;7.20;99.90;;;;;;5012115;28;20163;-75
2022/12/02 02:06:38;;;;;;;15.77;11.60;;;7.20;99.90;;;;;;4994599;28;20599;-75
2022/12/02 02:09:06;;;;;;;13.05;10.25;;;7.10;99.90;;;;;;5010277;28;20615;-75
2022/12/02 02:11:34;;;;;;;14.95;11.07;;;7.10;99.90;;;;;;4994278;28;20205;-75
2022/12/02 02:14:02;;;;;;;15.70;11.70;;;7.10;99.90;;;;;;4993736;28;20262;-75
2022/12/02 02:16:28;;;;;;;13.60;10.25;;;7.10;99.90;;;;;;4994200;28;20177;-75
2022/12/02 02:18:53;;;;;;;16.53;11.80;;;7.10;99.90;;;;;;4993945;28;20542;-75
2022/12/02 02:21:24;;;;;;;16.60;11.17;;;7.10;99.90;;;;;;5010258;28;20575;-75
2022/12/02 02:23:51;;;;;;;14.07;10.55;;;7.20;99.90;;;;;;5010517;28;20549;-76
2022/12/02 02:26:17;;;;;;;15.43;11.13;;;7.20;99.90;;;;;;5010444;28;20167;-75
2022/12/02 02:28:43;;;;;;;15.10;9.52;;;7.20;99.90;;;;;;5009992;28;21074;-75
2022/12/02 02:31:09;;;;;;;15.55;11.52;;;7.20;99.90;;;;;;5010096;28;20181;-74
2022/12/02 02:33:39;;;;;;;15.38;10.75;;;7.30;99.90;;;;;;4994319;28;20256;-74
2022/12/02 02:36:06;;;;;;;17.70;11.77;;;7.30;99.90;;;;;;4993748;28;20170;-75
2022/12/02 02:38:33;;;;;;;14.85;10.90;;;7.30;99.90;;;;;;4977006;28;20558;-75
2022/12/02 02:41:00;;;;;;;13.82;9.95;;;7.30;99.90;;;;;;5010513;28;20174;-74
2022/12/02 02:43:28;;;;;;;14.38;10.50;;;7.30;99.90;;;;;;4993637;28;20220;-74
2022/12/02 02:45:55;;;;;;;15.25;11.02;;;7.30;99.90;;;;;;4993922;28;20588;-74
2022/12/02 02:48:25;;;;;;;15.73;10.57;;;7.30;99.90;;;;;;4976970;28;20197;-74
2022/12/02 02:50:51;;;;;;;15.30;11.65;;;7.30;99.90;;;;;;5009942;28;20166;-74
2022/12/02 02:53:22;;;;;;;16.23;11.15;;;7.30;99.90;;;;;;4993141;28;20542;-74
2022/12/02 02:55:48;;;;;;;13.55;9.80;;;7.30;99.90;;;;;;5010240;28;20189;-76
2022/12/02 02:58:14;;;;;;;13.73;9.77;;;7.30;99.90;;;;;;5009269;28;20301;-75
2022/12/02 03:00:49;;;;;;;18.67;11.85;;;7.40;99.90;;;;;;5010076;28;20502;-74
2022/12/02 03:03:20;;;;;;;14.98;10.48;;;7.30;99.90;;;;;;5009407;28;20170;-74
2022/12/02 03:05:46;;;;;;;17.02;11.48;;;7.40;99.90;;;;;;4993440;28;20232;-74
2022/12/02 03:08:12;;;;;;;15.80;11.75;;;7.40;99.90;;;;;;4993028;28;20198;-74
2022/12/02 03:10:39;;;;;;;13.97;10.00;;;7.40;99.90;;;;;;5010666;28;20167;-74
2022/12/02 03:13:05;;;;;;;18.55;11.95;;;7.40;99.90;;;;;;5009455;28;20565;-73
2022/12/02 03:15:31;;;;;;;14.43;9.50;;;7.40;99.90;;;;;;5010764;28;20209;-74
2022/12/02 03:17:57;;;;;;;14.73;11.60;;;7.30;99.90;;;;;;5010380;28;20627;-73
2022/12/02 03:20:23;;;;;;;17.15;12.20;;;7.30;99.90;;;;;;5010447;28;20268;-73
2022/12/02 03:22:49;;;;;;;16.73;11.02;;;7.40;99.90;;;;;;5010270;28;20176;-74
2022/12/02 03:25:15;;;;;;;16.60;12.07;;;7.40;99.90;;;;;;5009829;28;20167;-74
2022/12/02 03:27:41;;;;;;;19.67;12.52;;;7.40;99.90;;;;;;5008500;28;20187;-74
2022/12/02 03:30:08;;;;;;;15.50;12.67;;;7.40;99.90;;;;;;5010617;28;20661;-74
2022/12/02 03:32:34;;;;;;;17.15;12.25;;;7.40;99.90;;;;;;5010152;28;20585;-74
2022/12/02 03:35:01;;;;;;;18.23;12.52;;;7.40;99.90;;;;;;5010228;28;20300;-74
2022/12/02 03:37:27;;;;;;;19.73;12.32;;;7.40;99.90;;;;;;5010704;28;20571;-73
2022/12/02 03:39:53;;;;;;;19.40;11.80;;;7.40;99.90;;;;;;5010800;28;20265;-73
2022/12/02 03:42:19;;;;;;;14.27;10.70;;;7.40;99.90;;;;;;5009958;28;20257;-74
2022/12/02 03:44:45;;;;;;;17.75;11.90;;;7.40;99.90;;;;;;5009036;28;20573;-74
2022/12/02 03:47:12;;;;;;;15.40;12.20;;;7.40;99.90;;;;;;4991761;28;20174;-73
2022/12/02 03:49:38;;;;;;;16.17;12.50;;;7.40;99.90;;;;;;5008860;28;20569;-73
2022/12/02 03:52:03;;;;;;;14.70;10.67;;;7.40;99.90;;;;;;5009728;28;20189;-73
2022/12/02 03:54:29;;;;;;;16.43;10.67;;;7.40;99.90;;;;;;5008886;28;20716;-74
2022/12/02 03:56:55;;;;;;;16.60;12.00;;;7.40;99.90;;;;;;4991889;28;21173;-74
2022/12/02 03:59:26;;;;;;;15.65;11.93;;;7.40;99.90;;;;;;5009640;28;20261;-74
2022/12/02 04:01:51;;;;;;;18.63;14.07;;;7.40;99.90;;;;;;5010031;28;20583;-74
2022/12/02 04:04:17;;;;;;;16.70;12.57;;;7.40;99.90;;;;;;5009975;28;20256;-74
2022/12/02 04:06:43;;;;;;;18.40;12.23;;;7.40;99.90;;;;;;5009843;28;20565;-74
2022/12/02 04:09:09;;;;;;;18.60;11.35;;;7.40;99.90;;;;;;5009405;28;20195;-74
2022/12/02 04:11:35;;;;;;;19.63;12.57;;;7.30;99.90;;;;;;5009688;28;20178;-74
2022/12/02 04:14:01;;;;;;;16.50;12.20;;;7.40;99.90;;;;;;5009697;28;20201;-74
2022/12/02 04:16:27;;;;;;;20.05;11.48;;;7.30;99.90;;;;;;5009939;28;20166;-73
2022/12/02 04:18:53;;;;;;;15.85;11.85;;;7.30;99.90;;;;;;5008990;28;20183;-74
2022/12/02 04:21:18;;;;;;;18.67;12.63;;;7.30;99.90;;;;;;5009498;28;20193;-74
2022/12/02 04:23:44;;;;;;;19.83;11.67;;;7.30;99.90;;;;;;4992008;28;20174;-74
2022/12/02 04:26:10;;;;;;;15.30;11.03;;;7.30;99.90;;;;;;5009547;28;20647;-74
2022/12/02 04:28:36;;;;;;;18.13;11.73;;;7.30;99.90;;;;;;5009335;28;20224;-75
2022/12/02 04:31:01;;;;;;;15.50;9.83;;;7.30;99.90;;;;;;5009285;28;20532;-74
2022/12/02 04:33:27;;;;;;;16.53;11.47;;;7.30;99.90;;;;;;5009279;28;20170;-74
2022/12/02 04:35:53;;;;;;;15.70;10.93;;;7.30;99.90;;;;;;5009351;28;20509;-75
2022/12/02 04:38:19;;;;;;;16.10;12.37;;;7.30;99.90;;;;;;5008368;28;20621;-74
2022/12/02 04:40:44;;;;;;;15.90;11.40;;;7.30;99.90;;;;;;5034331;22;20721;-77
2022/12/02 04:43:10;;;;;;;16.77;12.03;;;7.30;99.90;;;;;;5005776;28;20253;-77
2022/12/02 04:45:36;;;;;;;19.10;12.93;;;7.40;99.90;;;;;;5009639;28;20178;-76
2022/12/02 04:48:02;;;;;;;18.40;12.60;;;7.40;99.90;;;;;;5008525;28;20166;-76
2022/12/02 04:50:28;;;;;;;16.50;10.63;;;7.40;99.90;;;;;;5008128;28;20186;-76
2022/12/02 04:52:53;;;;;;;17.43;11.73;;;7.40;99.90;;;;;;5007572;28;20573;-76
2022/12/02 04:55:19;;;;;;;20.13;12.87;;;7.40;99.90;;;;;;5009340;28;20242;-76
2022/12/02 04:57:45;;;;;;;17.27;11.33;;;7.40;99.90;;;;;;5007473;28;20509;-76
2022/12/02 05:00:11;;;;;;;16.67;10.97;;;7.30;99.90;;;;;;5009354;28;20665;-76
2022/12/02 05:02:37;;;;;;;20.15;13.95;;;7.30;99.90;;;;;;5023990;28;20163;-76
2022/12/02 05:05:03;;;;;;;20.00;13.00;;;7.30;99.90;;;;;;5007926;28;20181;-76
2022/12/02 05:07:29;;;;;;;16.85;11.38;;;7.30;99.90;;;;;;5008853;28;20260;-76
2022/12/02 05:09:54;;;;;;;19.40;13.50;;;7.30;99.90;;;;;;5010563;28;20217;-76
2022/12/02 05:12:20;;;;;;;24.13;14.07;;;7.30;99.90;;;;;;5008999;28;20185;-76
2022/12/02 05:14:46;;;;;;;17.33;12.87;;;7.30;99.90;;;;;;5007582;28;20283;-76
2022/12/02 05:17:12;;;;;;;20.17;13.90;;;7.30;99.90;;;;;;5007261;28;20608;-76
2022/12/02 05:19:37;;;;;;;23.07;14.70;;;7.30;99.90;;;;;;5008837;28;20186;-76
2022/12/02 05:22:03;;;;;;;19.90;13.50;;;7.30;99.90;;;;;;5007349;28;20581;-76
2022/12/02 05:24:29;;;;;;;20.87;14.30;;;7.30;99.90;;;;;;5007578;28;20206;-76
2022/12/02 05:26:54;;;;;;;19.50;13.70;;;7.20;99.90;;;;;;5007478;28;20174;-76
2022/12/02 05:29:20;;;;;;;21.70;13.73;;;7.20;99.90;;;;;;4991168;28;20198;-76
2022/12/02 05:31:46;;;;;;;25.30;15.40;;;7.30;99.90;;;;;;5007412;28;20531;-76
2022/12/02 05:34:11;;;;;;;23.10;14.97;;;7.20;99.90;;;;;;5007790;28;20198;-76
2022/12/02 05:36:38;;;;;;;17.15;11.93;;;7.30;99.90;;;;;;5007319;28;20175;-76
2022/12/02 05:39:04;;;;;;;22.67;14.02;;;7.30;99.90;;;;;;5007045;28;20547;-77
2022/12/02 05:41:30;;;;;;;20.07;12.77;;;7.30;99.90;;;;;;5007289;28;20173;-77
2022/12/02 05:44:00;;;;;;;20.60;12.77;;;7.30;99.90;;;;;;5008885;28;20536;-76
2022/12/02 05:46:29;;;;;;;23.48;13.98;;;7.30;99.90;;;;;;5011602;28;21148;-79
2022/12/02 05:48:56;;;;;;;20.85;12.70;;;7.30;99.90;;;;;;5031859;28;20163;-78
2022/12/02 05:51:22;;;;;;;22.25;14.27;;;7.20;99.90;;;;;;5019548;28;20680;-79
2022/12/02 05:53:49;;;;;;;20.27;13.97;;;7.20;99.90;;;;;;5016450;28;20229;-78
2022/12/02 05:56:27;;;;;;;26.30;13.85;;;7.20;99.90;;;;;;5001039;28;20198;-78
2022/12/02 05:59:00;;;;;;;21.23;14.43;;;7.20;99.90;;;;;;5020121;28;20167;-78
2022/12/02 06:01:34;;;;;;;24.23;14.10;;;7.20;99.90;;;;;;5000798;28;20190;-78
2022/12/02 06:04:00;;;;;;;21.05;14.10;;;7.20;99.90;;;;;;5005023;28;20392;-78
2022/12/02 06:06:34;;;;;;;26.77;16.60;;;7.20;99.90;;;;;;5002337;28;20175;-78
2022/12/02 06:09:00;;;;;;;24.80;15.38;;;7.20;99.90;;;;;;5016646;28;20203;-76
2022/12/02 06:11:33;;;;;;;24.42;14.65;;;7.20;99.90;;;;;;5007346;28;20198;-76
2022/12/02 06:14:05;;;;;;;24.15;15.43;;;7.20;99.90;;;;;;4992182;28;20285;-76
2022/12/02 06:16:31;;;;;;;25.52;15.05;;;7.20;99.90;;;;;;4992578;28;20181;-77
2022/12/02 06:19:01;;;;;;;23.30;15.30;;;7.20;99.90;;;;;;5006752;28;20691;-77
2022/12/02 06:21:27;;;;;;;22.17;14.90;;;7.20;99.90;;;;;;4992526;28;20770;-77
2022/12/02 06:23:56;;;;;;;23.90;15.60;;;7.20;99.90;;;;;;4991724;28;20237;-77
2022/12/02 06:26:23;;;;;;;21.42;13.27;;;7.20;99.90;;;;;;4990963;28;20183;-77
2022/12/02 06:29:00;;;;;;;26.10;17.05;;;7.20;99.90;;;;;;5006784;28;20167;-77
2022/12/02 06:31:41;;;;;;;21.25;12.77;;;7.20;99.90;;;;;;4991583;28;20168;-77
2022/12/02 06:34:45;;;;;;;24.02;12.82;;;7.30;99.90;;;;;;4974461;28;20253;-78
2022/12/02 06:37:23;;;;;;;19.48;13.77;;;7.30;99.90;;;;;;4989708;28;20189;-77
2022/12/02 06:39:54;;;;;;;24.90;13.77;;;7.30;99.90;;;;;;4991919;28;20206;-77
2022/12/02 06:42:40;;;;;;;25.90;15.18;;;7.30;99.90;;;;;;4990283;28;20174;-77
2022/12/02 06:45:12;;;;;;;26.70;17.13;;;7.30;99.90;;;;;;4991700;28;20253;-77
2022/12/02 06:47:41;;;;;;;23.67;14.45;;;7.30;99.90;;;;;;4991109;28;20266;-77
2022/12/02 06:50:07;;;;;;;24.88;15.45;;;7.30;99.90;;;;;;5006848;28;20979;-78
2022/12/02 06:52:45;;;;;;;25.40;15.80;;;7.30;99.90;;;;;;4989981;28;20171;-77
2022/12/02 06:55:22;;;;;;;29.45;16.05;;;7.30;99.90;;;;;;4990201;28;20213;-77
2022/12/02 06:57:47;;;;;;;25.40;14.95;;;7.30;99.90;;;;;;5005786;28;20193;-77
2022/12/02 07:00:14;;;;;;;28.57;17.70;;;7.30;99.90;;;;;;5008538;28;20187;-77
2022/12/02 07:02:41;;;;;;;28.40;17.38;;;7.30;99.90;;;;;;4989814;28;20677;-77
2022/12/02 07:05:07;;;;;;;32.47;17.42;;;7.30;99.90;;;;;;5003279;28;20179;-77
2022/12/02 07:07:35;;;;;;;31.38;18.10;;;7.30;99.90;;;;;;4975674;28;20179;-77
2022/12/02 07:10:10;;;;;;;31.75;19.42;;;7.30;99.90;;;;;;4991230;28;20770;-77
2022/12/02 07:12:41;;;;;;;33.70;18.67;;;7.30;99.90;;;;;;5006197;28;20170;-75
2022/12/02 07:15:28;;;;;;;30.98;18.13;;;7.30;99.90;;;;;;5006140;28;20241;-77
2022/12/02 07:18:18;;;;;;;23.25;13.73;;;7.30;99.90;;;;;;4991028;28;20172;-78
2022/12/02 07:20:46;;;;;;;25.15;15.23;;;7.30;99.90;;;;;;4980742;28;20199;-76
2022/12/02 07:23:17;;;;;;;23.55;15.27;;;7.30;99.90;;;;;;4989543;28;20183;-76
2022/12/02 07:25:52;;;;;;;27.67;16.20;;;7.30;99.90;;;;;;4989833;28;20701;-76
2022/12/02 07:28:32;;;;;;;33.28;16.70;;;7.30;99.90;;;;;;4990442;28;20174;-76
2022/12/02 07:31:09;;;;;;;26.85;15.63;;;7.30;99.90;;;;;;4990732;28;20190;-76
2022/12/02 07:33:35;;;;;;;27.70;16.10;;;7.30;99.90;;;;;;5006111;28;20233;-78
2022/12/02 07:36:00;;;;;;;29.97;15.53;;;7.30;99.90;;;;;;5005263;28;20577;-76
2022/12/02 07:38:26;;;;;;;26.13;15.80;;;7.20;99.90;;;;;;4993648;28;20250;-76
2022/12/02 07:40:52;;;;;;;26.47;17.00;;;7.20;99.90;;;;;;4990692;28;20249;-76
2022/12/02 07:43:18;;;;;;;26.27;15.53;;;7.20;99.90;;;;;;4990498;28;20171;-77
2022/12/02 07:45:43;;;;;;;24.67;14.83;;;7.10;99.90;;;;;;5005852;28;20656;-76
2022/12/02 07:48:09;;;;;;;24.23;13.43;;;7.00;99.90;;;;;;4989985;28;20571;-75
2022/12/02 07:50:36;;;;;;;21.75;13.68;;;7.00;99.90;;;;;;4989196;28;20633;-76
2022/12/02 07:53:02;;;;;;;24.08;12.85;;;6.90;99.90;;;;;;4988907;28;20247;-75
2022/12/02 07:55:28;;;;;;;22.73;13.40;;;6.80;99.90;;;;;;4989243;28;20564;-76
2022/12/02 07:57:54;;;;;;;21.77;11.80;;;6.70;99.90;;;;;;4988692;28;21060;-75
2022/12/02 08:00:21;;;;;;;22.20;14.80;;;6.70;99.90;;;;;;4990394;28;20614;-76
2022/12/02 08:02:47;;;;;;;23.60;14.60;;;6.60;99.90;;;;;;4988011;28;20594;-77
2022/12/02 08:05:12;;;;;;;28.57;16.57;;;6.50;99.90;;;;;;4990096;28;20225;-77
2022/12/02 08:07:39;;;;;;;31.02;19.40;;;6.50;99.90;;;;;;4990166;28;20171;-77
2022/12/02 08:10:05;;;;;;;33.00;17.40;;;6.40;99.90;;;;;;4990251;28;20201;-77
2022/12/02 08:12:31;;;;;;;27.27;16.50;;;6.40;99.90;;;;;;4988333;28;20582;-77
2022/12/02 08:14:57;;;;;;;35.20;18.90;;;6.40;99.90;;;;;;5007111;28;20202;-76
2022/12/02 08:17:23;;;;;;;33.80;18.47;;;6.30;99.90;;;;;;4987831;28;20606;-76
2022/12/02 08:19:48;;;;;;;34.40;19.03;;;6.30;99.90;;;;;;4984182;28;20661;-77
2022/12/02 08:22:14;;;;;;;30.23;16.77;;;6.30;99.90;;;;;;4988971;28;20206;-77
2022/12/02 08:24:40;;;;;;;31.50;16.92;;;6.30;99.90;;;;;;5005192;28;20696;-77
2022/12/02 08:27:06;;;;;;;26.07;16.97;;;6.30;99.90;;;;;;4989775;28;20179;-77
2022/12/02 08:29:33;;;;;;;32.90;17.83;;;6.30;99.90;;;;;;5005320;28;20279;-76
2022/12/02 08:31:58;;;;;;;33.95;17.15;;;6.30;99.90;;;;;;5004759;28;20190;-76
2022/12/02 08:34:24;;;;;;;36.07;16.93;;;6.30;99.90;;;;;;4989903;28;20203;-76
2022/12/02 08:36:50;;;;;;;26.67;15.97;;;6.30;99.90;;;;;;4989539;28;20171;-76
2022/12/02 08:39:16;;;;;;;29.53;17.87;;;6.30;99.90;;;;;;5004993;28;20194;-76
2022/12/02 08:41:42;;;;;;;31.60;18.20;;;6.30;99.90;;;;;;4989548;28;21058;-76
2022/12/02 08:44:08;;;;;;;35.60;18.83;;;6.40;99.90;;;;;;4989976;28;20282;-76
2022/12/02 08:46:35;;;;;;;35.60;17.17;;;6.40;99.90;;;;;;4989636;28;20226;-76
2022/12/02 08:49:01;;;;;;;40.72;18.75;;;6.40;99.90;;;;;;5004390;28;20199;-76
2022/12/02 08:51:28;;;;;;;39.60;20.88;;;6.40;99.90;;;;;;4989891;28;20230;-76
2022/12/02 08:53:53;;;;;;;28.45;15.82;;;6.50;99.90;;;;;;4991552;28;20559;-76
2022/12/02 08:56:20;;;;;;;37.23;17.50;;;6.50;99.90;;;;;;5005062;28;20167;-76
2022/12/02 08:58:45;;;;;;;37.10;20.50;;;6.50;99.90;;;;;;4989150;28;20570;-76
2022/12/02 09:01:11;;;;;;;41.20;21.83;;;6.50;99.90;;;;;;5004418;28;20502;-76
2022/12/02 09:03:37;;;;;;;40.67;20.40;;;6.60;99.90;;;;;;5004579;28;20183;-76
2022/12/02 09:06:03;;;;;;;29.87;16.83;;;6.60;99.90;;;;;;4989889;28;20520;-76
2022/12/02 09:08:29;;;;;;;34.77;17.77;;;6.60;99.90;;;;;;4986070;28;20250;-76
2022/12/02 09:10:55;;;;;;;32.47;16.40;;;6.60;99.90;;;;;;4986024;28;20626;-76
2022/12/02 09:13:20;;;;;;;30.13;18.60;;;6.60;99.90;;;;;;4990722;28;20597;-76
2022/12/02 09:15:46;;;;;;;39.37;19.70;;;6.60;99.90;;;;;;5006314;28;20208;-77
2022/12/02 09:18:12;;;;;;;39.97;18.70;;;6.70;99.90;;;;;;4990960;28;20182;-77
2022/12/02 09:20:38;;;;;;;33.40;17.83;;;6.70;99.90;;;;;;4971865;28;20199;-76
2022/12/02 09:23:03;;;;;;;30.37;15.90;;;6.70;99.90;;;;;;4989521;28;20249;-77
2022/12/02 09:25:29;;;;;;;32.90;16.37;;;6.70;99.90;;;;;;4994666;28;20531;-77
2022/12/02 09:27:55;;;;;;;27.77;16.00;;;6.70;99.90;;;;;;4977406;28;20229;-77
2022/12/02 09:30:21;;;;;;;28.03;15.27;;;6.70;99.90;;;;;;4994969;28;20202;-77
2022/12/02 09:32:46;;;;;;;34.63;18.33;;;6.70;99.90;;;;;;4992951;28;20622;-76
2022/12/02 09:35:12;;;;;;;32.13;18.03;;;6.70;99.90;;;;;;4994530;28;20206;-77
2022/12/02 09:37:38;;;;;;;32.60;17.30;;;6.70;99.90;;;;;;4992762;28;20203;-77
2022/12/02 09:40:05;;;;;;;30.20;15.33;;;6.70;99.90;;;;;;4993519;28;20574;-77
2022/12/02 09:42:32;;;;;;;29.20;16.50;;;6.80;99.90;;;;;;5009411;28;20180;-77
2022/12/02 09:44:58;;;;;;;36.20;18.60;;;6.80;99.90;;;;;;4993442;28;20183;-76
2022/12/02 09:47:25;;;;;;;27.10;16.25;;;6.80;99.90;;;;;;4991000;28;20191;-76
2022/12/02 09:49:51;;;;;;;30.65;17.05;;;6.80;99.90;;;;;;4991977;28;20198;-76
2022/12/02 09:52:20;;;;;;;24.83;14.55;;;6.80;99.90;;;;;;4993087;28;20276;-75
2022/12/02 09:54:46;;;;;;;33.92;18.42;;;6.80;99.90;;;;;;5009866;28;20210;-75
2022/12/02 09:57:17;;;;;;;31.45;17.85;;;6.90;99.90;;;;;;4993945;28;20194;-75
2022/12/02 09:59:43;;;;;;;31.38;18.70;;;6.90;99.90;;;;;;4993844;28;20195;-75
2022/12/02 10:02:23;;;;;;;28.67;16.90;;;6.90;99.90;;;;;;5010303;28;20175;-75
2022/12/02 10:04:49;;;;;;;28.45;18.58;;;6.90;99.90;;;;;;4996946;28;20543;-76
2022/12/02 10:07:15;;;;;;;31.80;18.70;;;6.90;99.90;;;;;;4994123;28;20175;-75
2022/12/02 10:09:41;;;;;;;41.37;19.70;;;6.90;99.90;;;;;;4983525;28;20626;-74
2022/12/02 10:12:10;;;;;;;35.70;19.30;;;6.90;99.90;;;;;;4992997;28;20190;-75
2022/12/02 10:14:37;;;;;;;34.58;20.48;;;6.90;99.90;;;;;;5009402;28;20571;-76
2022/12/02 10:17:16;;;;;;;31.60;17.52;;;6.90;99.90;;;;;;4975754;28;20538;-77
2022/12/02 10:19:43;;;;;;;32.78;16.88;;;6.90;99.90;;;;;;5009126;28;20222;-76
2022/12/02 10:22:20;;;;;;;32.70;18.83;;;6.90;99.90;;;;;;4991980;28;20175;-75
2022/12/02 10:24:46;;;;;;;30.98;17.17;;;7.00;99.90;;;;;;4983426;28;20278;-76
2022/12/02 10:27:31;;;;;;;28.48;16.63;;;7.00;99.90;;;;;;4992758;28;20258;-76
2022/12/02 10:30:18;;;;;;;34.58;16.80;;;7.00;99.90;;;;;;4993469;28;20213;-77
2022/12/02 10:33:04;;;;;;;34.80;19.38;;;7.10;99.90;;;;;;5008147;28;20233;-77
2022/12/02 10:35:48;;;;;;;32.95;18.33;;;7.10;99.90;;;;;;4991701;28;20211;-77
2022/12/02 10:38:32;;;;;;;30.55;18.05;;;7.10;99.90;;;;;;4992020;28;20258;-77
2022/12/02 10:41:14;;;;;;;33.35;19.73;;;7.10;99.90;;;;;;4991973;28;20286;-77
2022/12/02 10:43:41;;;;;;;32.58;19.38;;;7.20;99.90;;;;;;5010487;28;20179;-77
2022/12/02 10:46:10;;;;;;;30.67;17.35;;;7.20;99.90;;;;;;4993914;28;20262;-78
2022/12/02 10:48:36;;;;;;;31.60;17.52;;;7.20;99.90;;;;;;4992233;28;20175;-79
2022/12/02 10:51:03;;;;;;;31.58;17.50;;;7.20;99.90;;;;;;4997495;28;20195;-80
2022/12/02 10:53:29;;;;;;;30.37;16.17;;;7.20;99.90;;;;;;4991325;28;20175;-78
2022/12/02 10:55:56;;;;;;;29.92;18.95;;;7.30;99.90;;;;;;4991463;28;20250;-79
2022/12/02 10:58:28;;;;;;;29.58;18.75;;;7.30;99.90;;;;;;4992696;28;20170;-79
2022/12/02 11:00:58;;;;;;;28.75;18.10;;;7.30;99.90;;;;;;4996936;28;20201;-78
2022/12/02 11:03:24;;;;;;;29.02;19.08;;;7.30;99.90;;;;;;4980898;28;20243;-78
2022/12/02 11:05:50;;;;;;;24.90;16.40;;;7.30;99.90;;;;;;4986211;28;20667;-79
2022/12/02 11:08:25;;;;;;;30.70;17.08;;;7.30;99.90;;;;;;4992929;28;20689;-78
2022/12/02 11:11:23;;;;;;;30.52;17.58;;;7.30;99.90;;;;;;4992612;28;20201;-80
2022/12/02 11:13:56;;;;;;;29.63;17.95;;;7.40;99.90;;;;;;4984850;28;20210;-79
2022/12/02 11:16:31;;;;;;;28.42;17.05;;;7.40;99.90;;;;;;5008192;28;20190;-79
2022/12/02 11:19:04;;;;;;;24.50;16.65;;;7.50;99.90;;;;;;4991284;28;20178;-77
2022/12/02 11:21:32;;;;;;;31.02;18.20;;;7.50;99.90;;;;;;4994894;28;20310;-77
2022/12/02 11:24:23;;;;;;;30.98;19.13;;;7.50;99.90;;;;;;4991380;28;20601;-79
2022/12/02 11:26:58;;;;;;;31.77;20.35;;;7.50;99.90;;;;;;4988697;28;20590;-77
2022/12/02 11:29:25;;;;;;;30.08;19.20;;;7.50;99.90;;;;;;4991638;28;20285;-79
2022/12/02 11:32:12;;;;;;;27.33;17.58;;;7.50;99.90;;;;;;4974778;28;20179;-79
2022/12/02 11:34:44;;;;;;;30.20;18.60;;;7.50;99.90;;;;;;5002788;28;20286;-78
2022/12/02 11:37:28;;;;;;;30.75;19.02;;;7.50;99.90;;;;;;4990359;28;20843;-78
2022/12/02 11:39:54;;;;;;;28.85;17.52;;;7.50;99.90;;;;;;4990794;28;20202;-78
2022/12/02 11:42:33;;;;;;;25.88;17.75;;;7.50;99.90;;;;;;5006937;28;20187;-78
2022/12/02 11:45:14;;;;;;;29.83;17.80;;;7.50;99.90;;;;;;5007364;28;20175;-78
2022/12/02 11:47:52;;;;;;;26.55;17.45;;;7.50;99.90;;;;;;4991195;28;20175;-78
2022/12/02 11:50:28;;;;;;;23.35;14.75;;;7.50;99.90;;;;;;4990860;28;20793;-79
2022/12/02 11:52:58;;;;;;;25.90;16.85;;;7.60;99.90;;;;;;4983454;28;20541;-77
2022/12/02 11:55:39;;;;;;;29.30;18.95;;;7.50;99.90;;;;;;4971665;28;20218;-77
2022/12/02 11:58:36;;;;;;;29.45;19.45;;;7.50;99.90;;;;;;4992278;28;20191;-80
2022/12/02 12:01:05;;;;;;;23.85;16.48;;;7.60;99.90;;;;;;4974875;28;20207;-77
2022/12/02 12:03:32;;;;;;;26.80;16.63;;;7.60;99.90;;;;;;4991022;28;20164;-78
2022/12/02 12:06:06;;;;;;;25.25;16.88;;;7.60;99.90;;;;;;4992391;28;20175;-77
2022/12/02 12:08:32;;;;;;;29.60;20.00;;;7.60;99.90;;;;;;5006180;28;20171;-78
2022/12/02 12:11:26;;;;;;;31.92;20.05;;;7.60;99.90;;;;;;4994282;28;20678;-78
2022/12/02 12:14:02;;;;;;;26.80;19.27;;;7.50;99.90;;;;;;4989902;28;20587;-78
2022/12/02 12:16:32;;;;;;;24.98;18.05;;;7.50;99.90;;;;;;4984038;28;20248;-78
2022/12/02 12:19:01;;;;;;;27.50;17.77;;;7.50;99.90;;;;;;4988643;28;20182;-78
2022/12/02 12:21:29;;;;;;;24.35;16.95;;;7.50;99.90;;;;;;4990606;28;20701;-78
2022/12/02 12:24:24;;;;;;;25.50;16.88;;;7.50;99.90;;;;;;4990488;28;20221;-79
2022/12/02 12:26:50;;;;;;;26.50;17.42;;;7.50;99.90;;;;;;4966472;28;20171;-78
2022/12/02 12:29:17;;;;;;;25.87;18.07;;;7.50;99.90;;;;;;4983437;28;20284;-78
2022/12/02 12:31:43;;;;;;;22.20;15.20;;;7.50;99.90;;;;;;4991325;28;20542;-77
2022/12/02 12:34:11;;;;;;;25.58;16.63;;;7.50;99.90;;;;;;4990826;28;20701;-77
2022/12/02 12:36:38;;;;;;;22.83;15.93;;;7.50;99.90;;;;;;4975503;28;20210;-77
2022/12/02 12:39:05;;;;;;;23.05;16.48;;;7.50;99.90;;;;;;4989924;28;20203;-78
2022/12/02 12:41:32;;;;;;;25.92;17.35;;;7.40;99.90;;;;;;4989707;28;20221;-80
2022/12/02 12:43:57;;;;;;;21.90;16.17;;;7.50;99.90;;;;;;4988100;28;20198;-81
2022/12/02 12:46:23;;;;;;;22.90;16.17;;;7.50;99.90;;;;;;4973977;28;20183;-78
2022/12/02 12:48:49;;;;;;;21.50;15.70;;;7.50;99.90;;;;;;4989128;28;20644;-78
2022/12/02 12:51:15;;;;;;;25.63;16.60;;;7.50;99.90;;;;;;4989821;28;20703;-78